createdAt,value
2023-03-29T00:01:56.754Z,-0.43
2023-03-29T00:04:30.429Z,-0.44
2023-03-29T00:07:04.033Z,-0.44
2023-03-29T00:09:33.489Z,-0.47
2023-03-29T00:12:01.982Z,-0.47
2023-03-29T00:14:31.122Z,-0.48
2023-03-29T07:21:56.383Z,0.14
2023-03-29T07:24:34.978Z,0.14
2023-03-29T07:27:04.713Z,0.18
2023-03-29T07:29:33.727Z,0.26
2023-03-29T07:32:02.315Z,0.28
2023-03-29T07:34:48.581Z,0.26
2023-03-29T07:37:35.256Z,0.20
2023-03-29T07:40:09.398Z,0.22
2023-03-29T07:42:50.774Z,0.28
2023-03-29T07:45:26.158Z,0.34
2023-03-29T07:48:14.782Z,0.43
2023-03-29T07:51:05.444Z,0.45
2023-03-29T07:53:46.023Z,0.43
2023-03-29T07:56:39.683Z,0.46
2023-03-29T07:59:18.212Z,0.49
2023-03-29T08:01:50.790Z,0.51
2023-03-29T08:04:41.274Z,0.53
2023-03-29T08:07:20.127Z,0.58
2023-03-29T08:10:14.204Z,0.65
2023-03-29T08:13:05.217Z,0.67
2023-03-29T08:15:46.416Z,0.61
2023-03-29T08:18:24.420Z,0.57
2023-03-29T08:21:02.140Z,0.57
2023-03-29T08:23:30.715Z,0.51
2023-03-29T08:26:13.696Z,0.38
2023-03-29T08:28:42.852Z,0.32
2023-03-29T08:31:12.051Z,0.31
2023-03-29T08:33:44.980Z,0.31
2023-03-29T08:36:47.506Z,0.29
2023-03-29T08:39:25.301Z,0.22
2023-03-29T08:42:18.981Z,0.20
2023-03-29T08:45:03.893Z,0.23
2023-03-29T08:47:38.297Z,0.30
2023-03-29T08:50:09.745Z,0.31
2023-03-29T08:52:51.696Z,0.29
2023-03-29T08:55:44.129Z,0.26
2023-03-29T08:58:44.815Z,0.23
2023-03-29T09:01:17.034Z,0.21
2023-03-29T09:04:14.975Z,0.19
2023-03-29T09:07:11.185Z,0.12
2023-03-29T09:09:46.874Z,0.09
2023-03-29T09:13:02.954Z,0.08
2023-03-29T09:15:44.139Z,0.17
2023-03-29T09:18:27.348Z,0.23
2023-03-29T09:21:00.695Z,0.32
2023-03-29T09:23:57.839Z,0.41
2023-03-29T09:26:56.333Z,0.55
2023-03-29T09:29:52.656Z,0.67
2023-03-29T09:32:57.914Z,0.76
2023-03-29T09:35:58.948Z,0.86
2023-03-29T09:38:49.581Z,0.94
2023-03-29T09:41:40.023Z,0.96
2023-03-29T09:44:29.853Z,1.01
2023-03-29T09:47:43.841Z,1.05
2023-03-29T09:50:30.161Z,1.09
2023-03-29T09:53:24.601Z,1.14
2023-03-29T09:56:15.960Z,1.15
2023-03-29T09:59:01.642Z,1.14
2023-03-29T10:01:44.619Z,1.17
2023-03-29T10:04:20.285Z,1.25
2023-03-29T10:06:59.939Z,1.36
2023-03-29T10:09:36.978Z,1.46
2023-03-29T10:12:42.942Z,1.52
2023-03-29T10:15:29.317Z,1.58
2023-03-29T10:18:27.620Z,1.58
2023-03-29T10:21:24.066Z,1.57
2023-03-29T10:24:02.936Z,1.48
2023-03-29T10:26:33.287Z,1.39
2023-03-29T10:29:05.019Z,1.29
2023-03-29T10:31:34.516Z,1.21
2023-03-29T10:34:09.186Z,1.18
2023-03-29T10:36:45.222Z,1.11
2023-03-29T10:39:16.328Z,1.08
2023-03-29T10:41:50.924Z,1.15
2023-03-29T10:44:44.483Z,1.20
2023-03-29T10:47:16.929Z,1.29
2023-03-29T10:50:08.071Z,1.38
2023-03-29T10:52:39.462Z,1.50
2023-03-29T10:55:12.937Z,1.58
2023-03-29T10:58:02.871Z,1.60
2023-03-29T11:00:32.827Z,1.59
2023-03-29T11:03:16.618Z,1.54
2023-03-29T11:06:30.768Z,1.54
2023-03-29T11:09:00.025Z,1.55
2023-03-29T11:11:58.374Z,1.49
2023-03-29T11:14:42.101Z,1.40
2023-03-29T11:17:39.060Z,1.31
2023-03-29T11:20:16.357Z,1.19
2023-03-29T11:23:17.983Z,1.05
2023-03-29T11:26:01.672Z,0.95
2023-03-29T11:28:47.086Z,0.89
2023-03-29T11:31:37.083Z,0.85
2023-03-29T11:34:37.954Z,0.83
2023-03-29T11:37:12.587Z,0.87
2023-03-29T11:39:59.301Z,0.89
2023-03-29T11:42:32.285Z,0.93
2023-03-29T11:45:02.414Z,0.99
2023-03-29T11:47:37.349Z,1.08
2023-03-29T11:50:26.624Z,1.19
2023-03-29T11:53:37.476Z,1.27
2023-03-29T11:56:57.740Z,1.21
2023-03-29T12:00:06.425Z,1.08
2023-03-29T12:03:05.184Z,1.00
2023-03-29T12:06:24.447Z,0.97
2023-03-29T12:09:34.286Z,0.98
2023-03-29T12:12:39.639Z,1.04
2023-03-29T12:15:23.106Z,1.05
2023-03-29T12:18:11.615Z,1.07
2023-03-29T12:20:41.020Z,1.04
2023-03-29T12:23:13.091Z,1.01
2023-03-29T12:26:02.685Z,0.98
2023-03-29T12:29:09.932Z,0.87
2023-03-29T12:31:49.302Z,0.75
2023-03-29T12:35:16.759Z,0.68
2023-03-29T12:38:24.150Z,0.61
2023-03-29T12:41:22.227Z,0.53
2023-03-29T12:44:49.225Z,0.49
2023-03-29T12:47:44.312Z,0.49
2023-03-29T12:50:52.081Z,0.49
2023-03-29T12:53:38.837Z,0.48
2023-03-29T12:56:19.806Z,0.48
2023-03-29T12:59:07.958Z,0.41
2023-03-29T13:01:39.128Z,0.39
2023-03-29T13:05:10.837Z,0.46
2023-03-29T13:07:47.424Z,0.56
2023-03-29T13:10:52.648Z,0.66
2023-03-29T13:13:29.839Z,0.75
2023-03-29T13:16:18.390Z,0.75
2023-03-29T13:19:32.108Z,0.75
2023-03-29T13:22:44.509Z,0.70
2023-03-29T13:25:56.096Z,0.58
2023-03-29T13:28:51.264Z,0.43
2023-03-29T13:31:35.804Z,0.25
2023-03-29T13:34:43.235Z,0.17
2023-03-29T13:37:38.219Z,0.17
2023-03-29T13:40:34.943Z,0.15
2023-03-29T14:04:54.000Z,0.70
2023-03-29T14:07:26.438Z,0.79
2023-03-29T14:09:56.116Z,0.81
2023-03-29T14:12:34.086Z,0.84
2023-03-29T14:15:05.192Z,0.87
2023-03-29T14:17:35.809Z,0.85
2023-03-29T14:20:09.465Z,0.81
2023-03-29T14:22:45.709Z,0.75
2023-03-29T14:25:17.420Z,0.69
2023-03-29T14:27:45.741Z,0.61
2023-03-29T14:30:27.602Z,0.57
2023-03-29T14:33:25.972Z,0.53
2023-03-29T14:35:55.274Z,0.49
2023-03-29T14:38:24.653Z,0.47
2023-03-29T14:40:53.735Z,0.44
2023-03-29T14:43:24.361Z,0.41
2023-03-29T14:45:53.074Z,0.40
2023-03-29T14:48:22.860Z,0.39
2023-03-29T14:50:51.713Z,0.40
2023-03-29T14:53:22.915Z,0.40
2023-03-29T14:55:52.924Z,0.41
2023-03-29T14:58:32.949Z,0.42
2023-03-29T15:01:06.297Z,0.42
2023-03-29T15:03:49.621Z,0.42
2023-03-29T15:06:18.261Z,0.43
2023-03-29T15:09:01.471Z,0.42
2023-03-29T15:11:34.535Z,0.39
2023-03-29T15:14:14.325Z,0.37
2023-03-29T15:16:44.031Z,0.36
2023-03-29T15:19:22.242Z,0.38
2023-03-29T15:21:51.541Z,0.39
2023-03-29T15:24:21.978Z,0.41
2023-03-29T15:27:19.941Z,0.43
2023-03-29T15:29:48.629Z,0.44
2023-03-29T15:32:25.286Z,0.40
2023-03-29T15:35:01.676Z,0.40
2023-03-29T15:37:31.278Z,0.39
2023-03-29T15:39:59.845Z,0.40
2023-03-29T15:42:30.194Z,0.43
2023-03-29T15:44:58.573Z,0.45
2023-03-29T15:47:28.174Z,0.45
2023-03-29T15:49:56.659Z,0.42
2023-03-29T15:52:25.074Z,0.39
2023-03-29T15:54:53.398Z,0.36
2023-03-29T15:57:22.113Z,0.38
2023-03-29T15:59:50.812Z,0.41
2023-03-29T16:02:23.652Z,0.41
2023-03-29T16:04:52.243Z,0.39
2023-03-29T16:07:21.220Z,0.37
2023-03-29T16:09:49.518Z,0.36
2023-03-29T16:12:20.846Z,0.39
2023-03-29T16:14:49.943Z,0.41
2023-03-29T16:17:18.728Z,0.40
2023-03-29T16:19:49.614Z,0.38
2023-03-29T16:22:18.172Z,0.36
2023-03-29T16:24:46.738Z,0.38
2023-03-29T16:27:15.516Z,0.41
2023-03-29T16:29:44.492Z,0.44
2023-03-29T16:32:13.346Z,0.45
2023-03-29T16:34:43.616Z,0.47
2023-03-29T16:37:13.135Z,0.47
2023-03-29T16:39:44.635Z,0.49
2023-03-29T16:42:12.978Z,0.49
2023-03-29T16:44:41.091Z,0.50
2023-03-29T16:47:12.806Z,0.52
2023-03-29T16:49:48.753Z,0.55
2023-03-29T16:52:17.736Z,0.55
2023-03-29T16:54:49.052Z,0.53
2023-03-29T16:57:17.502Z,0.52
2023-03-29T16:59:47.909Z,0.53
2023-03-29T17:02:16.505Z,0.54
2023-03-29T17:04:45.744Z,0.55
2023-03-29T17:07:14.758Z,0.57
2023-03-29T17:09:43.581Z,0.59
2023-03-29T17:12:12.445Z,0.60
2023-03-29T17:14:42.142Z,0.60
2023-03-29T17:17:14.306Z,0.61
2023-03-29T17:19:42.709Z,0.63
2023-03-29T17:22:11.170Z,0.64
2023-03-29T17:24:50.146Z,0.65
2023-03-29T17:27:19.096Z,0.65
2023-03-29T17:29:47.567Z,0.66
2023-03-29T17:32:15.940Z,0.67
2023-03-29T17:34:44.382Z,0.68
2023-03-29T17:37:13.112Z,0.68
2023-03-29T17:39:42.293Z,0.68
2023-03-29T17:42:11.101Z,0.69
2023-03-29T17:44:41.111Z,0.68
2023-03-29T17:47:09.801Z,0.67
2023-03-29T17:49:41.960Z,0.66
2023-03-29T17:52:10.789Z,0.66
2023-03-29T17:54:39.235Z,0.68
2023-03-29T17:57:32.803Z,0.67
2023-03-29T18:00:27.204Z,0.65
2023-03-29T18:02:56.525Z,0.64
2023-03-29T18:06:21.167Z,0.63
2023-03-29T18:08:49.827Z,0.63
2023-03-29T18:11:24.943Z,0.64
2023-03-29T18:13:53.715Z,0.66
2023-03-29T18:16:25.828Z,0.67
2023-03-29T18:18:55.989Z,0.69
2023-03-29T18:21:27.756Z,0.69
2023-03-29T18:23:57.132Z,0.65
2023-03-29T18:26:26.138Z,0.60
2023-03-29T18:29:00.973Z,0.54
2023-03-29T18:31:33.776Z,0.49
2023-03-29T18:34:03.473Z,0.46
2023-03-29T18:36:33.064Z,0.43
2023-03-29T18:39:06.179Z,0.40
2023-03-29T18:41:38.108Z,0.35
2023-03-29T18:44:08.088Z,0.31
2023-03-29T18:46:36.607Z,0.29
2023-03-29T18:49:07.816Z,0.26
2023-03-29T18:51:36.337Z,0.24
2023-03-29T18:54:05.493Z,0.24
2023-03-29T18:56:34.315Z,0.28
2023-03-29T18:59:07.042Z,0.31
2023-03-29T19:02:03.148Z,0.34
2023-03-29T19:04:32.138Z,0.36
2023-03-29T19:07:01.599Z,0.37
2023-03-29T19:09:57.272Z,0.36
2023-03-29T19:13:21.369Z,0.34
2023-03-29T19:15:51.989Z,0.34
2023-03-29T19:18:25.315Z,0.33
2023-03-29T19:20:55.277Z,0.33
2023-03-29T19:23:26.213Z,0.33
2023-03-29T19:25:54.822Z,0.31
2023-03-29T19:28:23.584Z,0.30
2023-03-29T19:30:55.042Z,0.26
2023-03-29T19:33:24.151Z,0.26
2023-03-29T19:35:52.868Z,0.26
2023-03-29T19:38:22.824Z,0.24
2023-03-29T19:40:51.583Z,0.22
2023-03-29T19:43:22.245Z,0.19
2023-03-29T19:45:59.743Z,0.18
2023-03-29T19:48:28.937Z,0.17
2023-03-29T19:51:00.643Z,0.14
2023-03-29T19:53:29.633Z,0.13
2023-03-29T19:56:02.290Z,0.11
2023-03-29T19:58:31.659Z,0.09
2023-03-29T20:01:00.300Z,0.09
2023-03-29T20:03:30.144Z,0.10
2023-03-29T20:05:58.838Z,0.11
2023-03-29T20:08:27.411Z,0.11
2023-03-29T20:11:04.109Z,0.11
2023-03-29T20:16:11.680Z,0.15
2023-03-29T20:19:31.383Z,0.12
2023-03-29T20:22:26.304Z,0.10
2023-03-29T20:24:54.554Z,0.09
2023-03-29T20:27:23.994Z,0.06
2023-03-29T20:29:55.640Z,0.07
2023-03-29T20:32:24.365Z,0.07
2023-03-29T20:34:53.005Z,0.05
2023-03-29T20:37:23.308Z,0.03
2023-03-29T20:39:53.328Z,0.01
2023-03-29T20:42:24.709Z,-0.02
2023-03-29T20:44:55.972Z,-0.06
2023-03-29T20:47:25.964Z,-0.11
2023-03-29T20:49:54.659Z,-0.17
2023-03-29T20:52:23.733Z,-0.19
2023-03-29T20:54:52.426Z,-0.21
2023-03-29T20:57:21.473Z,-0.22
2023-03-29T20:59:51.220Z,-0.23
2023-03-29T21:02:21.588Z,-0.22
2023-03-29T21:04:53.006Z,-0.20
2023-03-29T21:07:21.896Z,-0.19
2023-03-29T21:09:51.014Z,-0.21
2023-03-29T21:12:20.354Z,-0.19
2023-03-29T21:14:48.887Z,-0.20
2023-03-29T21:17:17.841Z,-0.18
2023-03-29T21:19:48.087Z,-0.22
2023-03-29T21:22:17.780Z,-0.24
2023-03-29T21:24:46.767Z,-0.26
2023-03-29T21:27:15.565Z,-0.28
2023-03-29T21:29:49.868Z,-0.29
2023-03-29T21:32:21.627Z,-0.31
2023-03-29T21:34:49.958Z,-0.34
2023-03-29T21:37:46.541Z,-0.35
2023-03-29T21:40:15.949Z,-0.36
2023-03-29T21:42:44.165Z,-0.38
2023-03-29T21:45:15.752Z,-0.38
2023-03-29T21:47:44.440Z,-0.43
2023-03-29T21:50:12.971Z,-0.47
2023-03-29T21:52:42.078Z,-0.53
2023-03-29T21:55:10.727Z,-0.64
2023-03-29T21:57:39.510Z,-0.75
2023-03-29T22:00:12.910Z,-0.83
2023-03-29T22:02:42.634Z,-0.92
2023-03-29T22:05:15.096Z,-0.99
2023-03-29T22:07:50.628Z,-1.02
2023-03-29T22:10:25.875Z,-1.04
2023-03-29T22:13:00.255Z,-1.06
2023-03-29T22:15:35.745Z,-1.06
2023-03-29T22:18:14.048Z,-1.09
2023-03-29T22:20:45.214Z,-1.12
2023-03-29T22:23:15.657Z,-1.13
2023-03-29T22:25:44.205Z,-1.14
2023-03-29T22:28:14.012Z,-1.16
2023-03-29T22:30:43.521Z,-1.18
2023-03-29T22:33:14.018Z,-1.19
2023-03-29T22:35:44.378Z,-1.21
2023-03-29T22:38:16.779Z,-1.24
2023-03-29T22:40:51.062Z,-1.21
2023-03-29T22:48:13.544Z,-1.12
2023-03-29T22:50:46.214Z,-1.11
2023-03-29T22:53:18.065Z,-1.09
2023-03-29T22:55:46.751Z,-1.09
2023-03-29T22:58:20.569Z,-1.12
2023-03-29T23:00:49.464Z,-1.14
2023-03-29T23:03:18.345Z,-1.16
2023-03-29T23:05:52.549Z,-1.15
2023-03-29T23:08:22.287Z,-1.14
2023-03-29T23:10:52.399Z,-1.15
2023-03-29T23:13:29.583Z,-1.21
2023-03-29T23:16:00.327Z,-1.22
2023-03-29T23:18:29.682Z,-1.23
2023-03-29T23:20:59.310Z,-1.23
2023-03-29T23:23:28.432Z,-1.24
2023-03-29T23:26:00.674Z,-1.24
2023-03-29T23:28:31.856Z,-1.22
2023-03-29T23:31:10.756Z,-1.20
2023-03-29T23:33:43.309Z,-1.16
2023-03-29T23:36:16.715Z,-1.13
2023-03-29T23:38:46.974Z,-1.08
2023-03-29T23:41:16.942Z,-1.06
2023-03-29T23:43:50.848Z,-1.02
2023-03-29T23:46:19.118Z,-0.99
2023-03-29T23:48:49.312Z,-0.98
2023-03-29T23:51:18.937Z,-0.99
2023-03-29T23:53:48.054Z,-0.99
2023-03-29T23:56:21.961Z,-1.01
2023-03-29T23:58:56.994Z,-1.04
